sensor_id;sensor_type;location;lat;lon;timestamp;pressure;altitude;pressure_sealevel;temperature;humidity
6198;BME280;3132;42.622;23.328;2023-02-18T00:01:34;93506.38;;;3.11;70.30
6198;BME280;3132;42.622;23.328;2023-02-18T00:03:59;93497.16;;;2.97;70.53
6198;BME280;3132;42.622;23.328;2023-02-18T00:06:27;93506.47;;;3.22;69.82
6198;BME280;3132;42.622;23.328;2023-02-18T00:08:53;93494.88;;;3.07;71.17
6198;BME280;3132;42.622;23.328;2023-02-18T00:11:20;93476.41;;;2.85;71.60
6198;BME280;3132;42.622;23.328;2023-02-18T00:13:53;93500.69;;;3.02;71.86
6198;BME280;3132;42.622;23.328;2023-02-18T00:16:19;93482.75;;;2.89;71.58
6198;BME280;3132;42.622;23.328;2023-02-18T00:18:44;93486.28;;;2.95;71.80
6198;BME280;3132;42.622;23.328;2023-02-18T00:21:09;93482.00;;;3.07;70.77
6198;BME280;3132;42.622;23.328;2023-02-18T00:23:35;93473.19;;;3.14;70.44
6198;BME280;3132;42.622;23.328;2023-02-18T00:26:06;93475.16;;;3.19;71.10
6198;BME280;3132;42.622;23.328;2023-02-18T00:28:31;93446.28;;;2.86;71.82
6198;BME280;3132;42.622;23.328;2023-02-18T00:30:57;93449.44;;;2.88;71.56
6198;BME280;3132;42.622;23.328;2023-02-18T00:33:22;93432.59;;;2.85;71.34
6198;BME280;3132;42.622;23.328;2023-02-18T00:35:48;93451.19;;;2.94;71.99
6198;BME280;3132;42.622;23.328;2023-02-18T00:38:13;93425.59;;;2.68;72.55
6198;BME280;3132;42.622;23.328;2023-02-18T00:40:39;93449.75;;;2.73;72.77
6198;BME280;3132;42.622;23.328;2023-02-18T00:43:05;93441.88;;;2.86;71.86
6198;BME280;3132;42.622;23.328;2023-02-18T00:45:30;93395.56;;;2.55;70.79
6198;BME280;3132;42.622;23.328;2023-02-18T00:47:55;93441.72;;;2.88;71.71
6198;BME280;3132;42.622;23.328;2023-02-18T00:50:21;93449.72;;;2.80;72.61
6198;BME280;3132;42.622;23.328;2023-02-18T00:52:47;93433.66;;;2.53;74.12
6198;BME280;3132;42.622;23.328;2023-02-18T00:55:12;93462.72;;;2.60;72.55
6198;BME280;3132;42.622;23.328;2023-02-18T00:57:38;93428.44;;;2.60;72.44
6198;BME280;3132;42.622;23.328;2023-02-18T01:00:05;93463.72;;;2.59;72.61
6198;BME280;3132;42.622;23.328;2023-02-18T01:02:30;93464.84;;;2.70;72.34
6198;BME280;3132;42.622;23.328;2023-02-18T01:04:56;93453.34;;;2.72;72.53
6198;BME280;3132;42.622;23.328;2023-02-18T01:07:21;93440.97;;;2.56;73.05
6198;BME280;3132;42.622;23.328;2023-02-18T01:09:47;93443.91;;;2.60;72.81
6198;BME280;3132;42.622;23.328;2023-02-18T01:12:12;93449.63;;;2.62;72.66
6198;BME280;3132;42.622;23.328;2023-02-18T01:14:37;93448.78;;;2.68;73.17
6198;BME280;3132;42.622;23.328;2023-02-18T01:17:03;93427.13;;;2.51;73.27
6198;BME280;3132;42.622;23.328;2023-02-18T01:19:28;93448.31;;;2.53;73.55
6198;BME280;3132;42.622;23.328;2023-02-18T01:21:53;93437.41;;;2.51;72.97
6198;BME280;3132;42.622;23.328;2023-02-18T01:24:19;93413.16;;;2.34;72.96
6198;BME280;3132;42.622;23.328;2023-02-18T01:26:44;93435.06;;;2.49;73.11
6198;BME280;3132;42.622;23.328;2023-02-18T01:29:10;93440.94;;;2.32;74.37
6198;BME280;3132;42.622;23.328;2023-02-18T01:31:35;93404.91;;;2.25;73.75
6198;BME280;3132;42.622;23.328;2023-02-18T01:34:00;93447.31;;;2.54;73.41
6198;BME280;3132;42.622;23.328;2023-02-18T01:36:26;93415.06;;;2.45;72.72
6198;BME280;3132;42.622;23.328;2023-02-18T01:38:51;93433.91;;;2.70;72.69
6198;BME280;3132;42.622;23.328;2023-02-18T01:41:18;93422.47;;;2.66;72.33
6198;BME280;3132;42.622;23.328;2023-02-18T01:43:44;93434.88;;;2.75;72.03
6198;BME280;3132;42.622;23.328;2023-02-18T01:46:20;93425.97;;;2.71;72.08
6198;BME280;3132;42.622;23.328;2023-02-18T01:48:50;93433.06;;;2.76;72.01
6198;BME280;3132;42.622;23.328;2023-02-18T01:51:24;93450.56;;;2.74;72.21
6198;BME280;3132;42.622;23.328;2023-02-18T01:53:57;93443.97;;;2.78;72.38
6198;BME280;3132;42.622;23.328;2023-02-18T01:56:30;93450.44;;;2.87;70.93
6198;BME280;3132;42.622;23.328;2023-02-18T01:58:59;93457.69;;;2.72;72.65
6198;BME280;3132;42.622;23.328;2023-02-18T02:01:26;93422.97;;;2.50;72.21
6198;BME280;3132;42.622;23.328;2023-02-18T02:03:51;93463.22;;;2.75;71.56
6198;BME280;3132;42.622;23.328;2023-02-18T02:06:19;93475.53;;;2.73;71.82
6198;BME280;3132;42.622;23.328;2023-02-18T02:08:46;93475.16;;;2.70;72.06
6198;BME280;3132;42.622;23.328;2023-02-18T02:16:27;93448.00;;;2.43;74.03
6198;BME280;3132;42.622;23.328;2023-02-18T02:19:04;93442.88;;;2.36;73.81
6198;BME280;3132;42.622;23.328;2023-02-18T02:22:03;93447.16;;;2.49;73.65
6198;BME280;3132;42.622;23.328;2023-02-18T02:27:14;93418.50;;;2.08;75.84
6198;BME280;3132;42.622;23.328;2023-02-18T02:35:44;93406.78;;;2.43;73.24
6198;BME280;3132;42.622;23.328;2023-02-18T02:38:30;93401.25;;;2.08;74.96
6198;BME280;3132;42.622;23.328;2023-02-18T02:46:45;93431.72;;;2.18;75.22
6198;BME280;3132;42.622;23.328;2023-02-18T02:49:14;93420.97;;;2.27;74.76
6198;BME280;3132;42.622;23.328;2023-02-18T02:51:48;93394.94;;;2.04;76.20
6198;BME280;3132;42.622;23.328;2023-02-18T02:54:25;93386.22;;;2.05;75.89
6198;BME280;3132;42.622;23.328;2023-02-18T02:59:57;93371.63;;;1.99;75.11
6198;BME280;3132;42.622;23.328;2023-02-18T03:11:08;93414.81;;;2.28;74.48
6198;BME280;3132;42.622;23.328;2023-02-18T03:16:35;93382.25;;;2.03;74.21
6198;BME280;3132;42.622;23.328;2023-02-18T03:19:18;93460.25;;;2.16;75.25
6198;BME280;3132;42.622;23.328;2023-02-18T03:24:19;93424.84;;;2.05;75.11
6198;BME280;3132;42.622;23.328;2023-02-18T03:26:51;93423.81;;;2.13;74.62
6198;BME280;3132;42.622;23.328;2023-02-18T03:29:20;93453.25;;;2.23;75.41
6198;BME280;3132;42.622;23.328;2023-02-18T03:31:49;93429.13;;;2.18;75.15
6198;BME280;3132;42.622;23.328;2023-02-18T03:34:24;93416.72;;;2.08;74.80
6198;BME280;3132;42.622;23.328;2023-02-18T03:36:51;93451.47;;;2.30;75.46
6198;BME280;3132;42.622;23.328;2023-02-18T03:39:19;93478.56;;;2.33;76.11
6198;BME280;3132;42.622;23.328;2023-02-18T03:41:45;93447.03;;;2.06;75.56
6198;BME280;3132;42.622;23.328;2023-02-18T03:44:11;93469.03;;;2.02;76.45
6198;BME280;3132;42.622;23.328;2023-02-18T03:46:38;93489.19;;;2.12;76.07
6198;BME280;3132;42.622;23.328;2023-02-18T03:49:05;93481.13;;;2.02;76.11
6198;BME280;3132;42.622;23.328;2023-02-18T03:51:31;93503.06;;;2.11;74.73
6198;BME280;3132;42.622;23.328;2023-02-18T03:53:56;93502.09;;;2.12;75.11
6198;BME280;3132;42.622;23.328;2023-02-18T03:56:22;93489.38;;;2.10;75.47
6198;BME280;3132;42.622;23.328;2023-02-18T03:58:48;93503.22;;;2.22;75.17
6198;BME280;3132;42.622;23.328;2023-02-18T04:01:14;93494.09;;;2.20;75.90
6198;BME280;3132;42.622;23.328;2023-02-18T04:03:39;93465.63;;;2.15;75.38
6198;BME280;3132;42.622;23.328;2023-02-18T04:06:05;93469.94;;;2.21;75.52
6198;BME280;3132;42.622;23.328;2023-02-18T04:08:30;93461.00;;;2.23;74.85
6198;BME280;3132;42.622;23.328;2023-02-18T04:10:55;93427.75;;;2.15;74.46
6198;BME280;3132;42.622;23.328;2023-02-18T04:13:21;93444.03;;;2.09;75.04
6198;BME280;3132;42.622;23.328;2023-02-18T04:15:50;93460.41;;;2.21;75.44
6198;BME280;3132;42.622;23.328;2023-02-18T04:18:16;93457.16;;;2.01;75.85
6198;BME280;3132;42.622;23.328;2023-02-18T04:20:41;93437.59;;;1.94;76.16
6198;BME280;3132;42.622;23.328;2023-02-18T04:23:07;93431.28;;;1.90;76.75
6198;BME280;3132;42.622;23.328;2023-02-18T04:25:32;93425.22;;;2.09;75.23
6198;BME280;3132;42.622;23.328;2023-02-18T04:27:57;93400.28;;;2.03;75.49
6198;BME280;3132;42.622;23.328;2023-02-18T04:30:24;93437.75;;;2.36;74.88
6198;BME280;3132;42.622;23.328;2023-02-18T04:32:49;93399.47;;;2.09;75.11
6198;BME280;3132;42.622;23.328;2023-02-18T04:35:15;93434.28;;;2.18;76.71
6198;BME280;3132;42.622;23.328;2023-02-18T04:37:40;93422.38;;;2.17;76.79
6198;BME280;3132;42.622;23.328;2023-02-18T04:40:06;93421.66;;;2.10;76.27
6198;BME280;3132;42.622;23.328;2023-02-18T04:42:32;93431.56;;;2.06;77.15
6198;BME280;3132;42.622;23.328;2023-02-18T04:44:57;93429.41;;;2.03;77.95
6198;BME280;3132;42.622;23.328;2023-02-18T04:47:23;93439.69;;;2.10;77.80
6198;BME280;3132;42.622;23.328;2023-02-18T04:49:48;93416.09;;;1.75;77.12
6198;BME280;3132;42.622;23.328;2023-02-18T04:52:14;93430.97;;;2.04;77.13
6198;BME280;3132;42.622;23.328;2023-02-18T04:54:39;93458.47;;;2.10;76.27
6198;BME280;3132;42.622;23.328;2023-02-18T04:57:04;93446.63;;;2.03;76.94
6198;BME280;3132;42.622;23.328;2023-02-18T04:59:30;93427.56;;;2.10;74.79
6198;BME280;3132;42.622;23.328;2023-02-18T05:01:55;93405.41;;;2.09;74.95
6198;BME280;3132;42.622;23.328;2023-02-18T05:04:21;93428.38;;;2.11;75.38
6198;BME280;3132;42.622;23.328;2023-02-18T05:06:46;93436.94;;;2.36;74.17
6198;BME280;3132;42.622;23.328;2023-02-18T05:09:12;93463.03;;;2.46;74.10
6198;BME280;3132;42.622;23.328;2023-02-18T05:11:38;93453.06;;;2.25;74.33
6198;BME280;3132;42.622;23.328;2023-02-18T05:14:04;93474.47;;;2.25;74.52
6198;BME280;3132;42.622;23.328;2023-02-18T05:16:29;93493.44;;;2.62;72.46
6198;BME280;3132;42.622;23.328;2023-02-18T05:18:55;93504.38;;;2.57;73.29
6198;BME280;3132;42.622;23.328;2023-02-18T05:21:20;93460.72;;;2.38;74.12
6198;BME280;3132;42.622;23.328;2023-02-18T05:23:45;93476.16;;;2.38;74.26
6198;BME280;3132;42.622;23.328;2023-02-18T05:26:11;93421.84;;;2.15;74.73
6198;BME280;3132;42.622;23.328;2023-02-18T05:28:36;93451.25;;;2.32;73.92
6198;BME280;3132;42.622;23.328;2023-02-18T05:31:02;93437.59;;;2.25;74.37
6198;BME280;3132;42.622;23.328;2023-02-18T05:33:27;93443.44;;;2.38;74.95
6198;BME280;3132;42.622;23.328;2023-02-18T05:35:53;93437.28;;;2.46;76.01
6198;BME280;3132;42.622;23.328;2023-02-18T05:38:18;93439.56;;;2.54;76.58
6198;BME280;3132;42.622;23.328;2023-02-18T05:40:44;93404.81;;;2.38;75.56
6198;BME280;3132;42.622;23.328;2023-02-18T05:43:09;93432.72;;;2.72;75.10
6198;BME280;3132;42.622;23.328;2023-02-18T05:45:35;93435.38;;;2.84;74.61
6198;BME280;3132;42.622;23.328;2023-02-18T05:48:00;93454.50;;;2.76;73.49
6198;BME280;3132;42.622;23.328;2023-02-18T05:50:26;93391.00;;;2.33;73.14
6198;BME280;3132;42.622;23.328;2023-02-18T05:52:51;93446.03;;;2.94;71.60
6198;BME280;3132;42.622;23.328;2023-02-18T05:55:17;93475.88;;;3.26;70.98
6198;BME280;3132;42.622;23.328;2023-02-18T05:57:42;93479.53;;;3.37;69.92
6198;BME280;3132;42.622;23.328;2023-02-18T06:00:08;93480.66;;;3.65;67.38
6198;BME280;3132;42.622;23.328;2023-02-18T06:02:35;93467.72;;;3.83;66.88
6198;BME280;3132;42.622;23.328;2023-02-18T06:05:00;93446.75;;;3.91;65.71
6198;BME280;3132;42.622;23.328;2023-02-18T06:07:26;93484.34;;;4.23;65.53
6198;BME280;3132;42.622;23.328;2023-02-18T06:09:51;93471.53;;;4.28;65.78
6198;BME280;3132;42.622;23.328;2023-02-18T06:12:18;93491.75;;;4.61;64.03
6198;BME280;3132;42.622;23.328;2023-02-18T06:14:43;93480.38;;;4.50;64.17
6198;BME280;3132;42.622;23.328;2023-02-18T06:17:10;93489.91;;;4.79;62.89
6198;BME280;3132;42.622;23.328;2023-02-18T06:19:36;93479.41;;;4.63;63.84
6198;BME280;3132;42.622;23.328;2023-02-18T06:22:02;93472.31;;;3.99;66.32
6198;BME280;3132;42.622;23.328;2023-02-18T06:24:28;93482.13;;;4.38;65.99
6198;BME280;3132;42.622;23.328;2023-02-18T06:26:53;93466.47;;;4.63;64.91
6198;BME280;3132;42.622;23.328;2023-02-18T06:29:19;93463.25;;;4.90;64.40
6198;BME280;3132;42.622;23.328;2023-02-18T06:31:44;93471.81;;;4.91;64.90
6198;BME280;3132;42.622;23.328;2023-02-18T06:34:09;93457.09;;;4.91;64.88
6198;BME280;3132;42.622;23.328;2023-02-18T06:36:35;93454.03;;;4.83;65.45
6198;BME280;3132;42.622;23.328;2023-02-18T06:39:04;93469.81;;;5.05;66.00
6198;BME280;3132;42.622;23.328;2023-02-18T06:41:29;93475.34;;;5.20;65.58
6198;BME280;3132;42.622;23.328;2023-02-18T06:43:55;93478.72;;;5.09;65.33
6198;BME280;3132;42.622;23.328;2023-02-18T06:46:20;93424.91;;;5.11;64.17
6198;BME280;3132;42.622;23.328;2023-02-18T06:48:46;93474.34;;;5.55;63.65
6198;BME280;3132;42.622;23.328;2023-02-18T06:51:11;93467.13;;;5.34;64.92
6198;BME280;3132;42.622;23.328;2023-02-18T06:53:37;93473.44;;;5.27;64.05
6198;BME280;3132;42.622;23.328;2023-02-18T06:56:02;93467.78;;;5.76;62.43
6198;BME280;3132;42.622;23.328;2023-02-18T06:58:28;93461.66;;;6.05;62.40
6198;BME280;3132;42.622;23.328;2023-02-18T07:00:53;93462.97;;;6.19;61.12
6198;BME280;3132;42.622;23.328;2023-02-18T07:03:18;93460.00;;;6.27;62.11
6198;BME280;3132;42.622;23.328;2023-02-18T07:05:44;93454.47;;;6.35;61.86
6198;BME280;3132;42.622;23.328;2023-02-18T07:08:09;93468.50;;;6.67;61.49
6198;BME280;3132;42.622;23.328;2023-02-18T07:10:35;93483.31;;;6.83;59.75
6198;BME280;3132;42.622;23.328;2023-02-18T07:13:01;93476.72;;;6.92;59.95
6198;BME280;3132;42.622;23.328;2023-02-18T07:15:26;93479.72;;;7.01;59.11
6198;BME280;3132;42.622;23.328;2023-02-18T07:17:52;93468.88;;;7.20;59.36
6198;BME280;3132;42.622;23.328;2023-02-18T07:20:19;93478.94;;;7.00;58.34
6198;BME280;3132;42.622;23.328;2023-02-18T07:22:45;93459.97;;;7.33;57.56
6198;BME280;3132;42.622;23.328;2023-02-18T07:25:12;93461.59;;;7.55;57.92
6198;BME280;3132;42.622;23.328;2023-02-18T07:27:37;93460.59;;;7.78;56.73
6198;BME280;3132;42.622;23.328;2023-02-18T07:30:03;93446.66;;;7.67;57.17
6198;BME280;3132;42.622;23.328;2023-02-18T07:32:28;93459.22;;;7.54;56.98
6198;BME280;3132;42.622;23.328;2023-02-18T07:34:54;93455.38;;;7.56;54.51
6198;BME280;3132;42.622;23.328;2023-02-18T07:37:19;93460.63;;;7.61;54.09
6198;BME280;3132;42.622;23.328;2023-02-18T07:39:45;93471.56;;;7.63;52.77
6198;BME280;3132;42.622;23.328;2023-02-18T07:42:11;93472.84;;;7.44;53.31
6198;BME280;3132;42.622;23.328;2023-02-18T07:44:37;93498.38;;;7.31;53.97
6198;BME280;3132;42.622;23.328;2023-02-18T07:47:04;93505.84;;;7.27;54.04
6198;BME280;3132;42.622;23.328;2023-02-18T07:49:32;93497.41;;;7.04;54.47
6198;BME280;3132;42.622;23.328;2023-02-18T07:51:58;93520.63;;;7.10;53.97
6198;BME280;3132;42.622;23.328;2023-02-18T07:54:24;93496.69;;;6.75;55.13
6198;BME280;3132;42.622;23.328;2023-02-18T07:56:50;93522.22;;;7.11;55.67
6198;BME280;3132;42.622;23.328;2023-02-18T07:59:15;93508.94;;;7.41;55.08
6198;BME280;3132;42.622;23.328;2023-02-18T08:01:41;93504.34;;;7.48;53.86
6198;BME280;3132;42.622;23.328;2023-02-18T08:04:07;93484.28;;;7.43;54.84
6198;BME280;3132;42.622;23.328;2023-02-18T08:06:44;93470.84;;;7.68;54.20
6198;BME280;3132;42.622;23.328;2023-02-18T08:09:11;93481.66;;;7.98;52.99
6198;BME280;3132;42.622;23.328;2023-02-18T08:11:36;93444.88;;;8.11;51.14
6198;BME280;3132;42.622;23.328;2023-02-18T08:14:02;93483.06;;;8.49;49.92
6198;BME280;3132;42.622;23.328;2023-02-18T08:16:27;93495.75;;;8.67;49.56
6198;BME280;3132;42.622;23.328;2023-02-18T08:18:53;93467.88;;;8.62;47.98
6198;BME280;3132;42.622;23.328;2023-02-18T08:21:20;93500.69;;;8.90;48.36
6198;BME280;3132;42.622;23.328;2023-02-18T08:23:47;93510.78;;;9.13;47.67
6198;BME280;3132;42.622;23.328;2023-02-18T08:26:13;93509.47;;;9.42;46.29
6198;BME280;3132;42.622;23.328;2023-02-18T08:28:38;93490.94;;;9.38;46.94
6198;BME280;3132;42.622;23.328;2023-02-18T08:31:04;93483.66;;;9.40;46.83
6198;BME280;3132;42.622;23.328;2023-02-18T08:33:30;93458.94;;;9.48;45.80
6198;BME280;3132;42.622;23.328;2023-02-18T08:35:55;93459.09;;;9.73;45.26
6198;BME280;3132;42.622;23.328;2023-02-18T08:38:22;93469.34;;;9.48;46.34
6198;BME280;3132;42.622;23.328;2023-02-18T08:40:48;93424.63;;;9.61;44.10
6198;BME280;3132;42.622;23.328;2023-02-18T08:43:15;93466.03;;;9.57;44.72
6198;BME280;3132;42.622;23.328;2023-02-18T08:45:41;93427.72;;;9.16;46.19
6198;BME280;3132;42.622;23.328;2023-02-18T08:48:07;93438.94;;;8.59;49.69
6198;BME280;3132;42.622;23.328;2023-02-18T08:50:34;93439.19;;;8.14;49.48
6198;BME280;3132;42.622;23.328;2023-02-18T08:52:59;93461.06;;;8.88;48.82
6198;BME280;3132;42.622;23.328;2023-02-18T08:55:31;93453.63;;;9.33;46.62
6198;BME280;3132;42.622;23.328;2023-02-18T08:57:57;93481.81;;;8.51;49.56
6198;BME280;3132;42.622;23.328;2023-02-18T09:00:22;93497.63;;;8.98;48.03
6198;BME280;3132;42.622;23.328;2023-02-18T09:02:48;93501.22;;;8.92;48.62
6198;BME280;3132;42.622;23.328;2023-02-18T09:05:13;93511.53;;;9.08;47.54
6198;BME280;3132;42.622;23.328;2023-02-18T09:07:39;93506.59;;;9.38;46.33
6198;BME280;3132;42.622;23.328;2023-02-18T09:10:05;93497.97;;;9.38;46.01
6198;BME280;3132;42.622;23.328;2023-02-18T09:12:31;93475.06;;;7.90;48.98
6198;BME280;3132;42.622;23.328;2023-02-18T09:14:56;93475.50;;;8.74;48.09
6198;BME280;3132;42.622;23.328;2023-02-18T09:17:22;93513.00;;;8.73;47.65
6198;BME280;3132;42.622;23.328;2023-02-18T09:19:47;93498.16;;;9.00;47.20
6198;BME280;3132;42.622;23.328;2023-02-18T09:22:13;93484.25;;;9.16;46.03
6198;BME280;3132;42.622;23.328;2023-02-18T09:24:40;93495.78;;;9.25;46.58
6198;BME280;3132;42.622;23.328;2023-02-18T09:27:06;93462.94;;;9.24;46.60
6198;BME280;3132;42.622;23.328;2023-02-18T09:29:32;93464.97;;;9.17;46.74
6198;BME280;3132;42.622;23.328;2023-02-18T09:32:01;93485.34;;;9.25;46.94
6198;BME280;3132;42.622;23.328;2023-02-18T09:34:27;93479.53;;;9.49;44.90
6198;BME280;3132;42.622;23.328;2023-02-18T09:36:53;93468.75;;;9.36;45.36
6198;BME280;3132;42.622;23.328;2023-02-18T09:39:19;93451.06;;;9.38;46.63
6198;BME280;3132;42.622;23.328;2023-02-18T09:41:53;93465.44;;;9.87;45.19
6198;BME280;3132;42.622;23.328;2023-02-18T09:46:51;93477.19;;;10.41;43.51
6198;BME280;3132;42.622;23.328;2023-02-18T09:49:22;93473.09;;;10.65;43.39
6198;BME280;3132;42.622;23.328;2023-02-18T09:51:49;93428.38;;;10.42;43.03
6198;BME280;3132;42.622;23.328;2023-02-18T09:54:17;93471.09;;;10.92;43.05
6198;BME280;3132;42.622;23.328;2023-02-18T09:56:45;93473.97;;;11.16;43.29
6198;BME280;3132;42.622;23.328;2023-02-18T09:59:21;93464.81;;;11.18;41.96
6198;BME280;3132;42.622;23.328;2023-02-18T10:01:50;93463.47;;;10.96;41.15
6198;BME280;3132;42.622;23.328;2023-02-18T10:04:18;93473.69;;;10.92;41.69
6198;BME280;3132;42.622;23.328;2023-02-18T10:06:49;93451.72;;;10.78;42.21
6198;BME280;3132;42.622;23.328;2023-02-18T10:11:48;93462.19;;;10.98;42.38
6198;BME280;3132;42.622;23.328;2023-02-18T10:14:15;93439.22;;;11.10;41.26
6198;BME280;3132;42.622;23.328;2023-02-18T10:16:42;93450.16;;;10.97;40.82
6198;BME280;3132;42.622;23.328;2023-02-18T10:21:37;93458.53;;;10.84;41.89
6198;BME280;3132;42.622;23.328;2023-02-18T10:24:18;93446.00;;;10.96;41.25
6198;BME280;3132;42.622;23.328;2023-02-18T10:26:48;93470.78;;;10.84;41.71
6198;BME280;3132;42.622;23.328;2023-02-18T10:29:17;93472.00;;;10.51;43.49
6198;BME280;3132;42.622;23.328;2023-02-18T10:31:48;93457.84;;;10.32;44.19
6198;BME280;3132;42.622;23.328;2023-02-18T10:37:04;93424.56;;;10.89;41.72
6198;BME280;3132;42.622;23.328;2023-02-18T10:40:28;93432.66;;;11.13;41.55
6198;BME280;3132;42.622;23.328;2023-02-18T10:45:35;93445.16;;;10.66;43.51
6198;BME280;3132;42.622;23.328;2023-02-18T10:48:17;93423.53;;;10.90;42.79
6198;BME280;3132;42.622;23.328;2023-02-18T10:50:47;93423.78;;;11.14;44.05
6198;BME280;3132;42.622;23.328;2023-02-18T10:53:29;93399.47;;;11.49;41.79
6198;BME280;3132;42.622;23.328;2023-02-18T10:55:56;93416.03;;;12.13;40.39
6198;BME280;3132;42.622;23.328;2023-02-18T10:58:45;93406.47;;;12.47;39.52
6198;BME280;3132;42.622;23.328;2023-02-18T11:01:16;93396.94;;;12.61;39.19
6198;BME280;3132;42.622;23.328;2023-02-18T11:03:44;93398.47;;;12.72;38.94
6198;BME280;3132;42.622;23.328;2023-02-18T11:08:52;93385.13;;;12.20;39.91
6198;BME280;3132;42.622;23.328;2023-02-18T11:11:37;93405.44;;;12.48;39.46
6198;BME280;3132;42.622;23.328;2023-02-18T11:14:05;93385.81;;;12.40;40.10
6198;BME280;3132;42.622;23.328;2023-02-18T11:16:43;93381.09;;;12.37;39.58
6198;BME280;3132;42.622;23.328;2023-02-18T11:19:34;93395.44;;;12.50;40.73
6198;BME280;3132;42.622;23.328;2023-02-18T11:22:17;93345.22;;;12.38;38.85
6198;BME280;3132;42.622;23.328;2023-02-18T11:24:43;93381.34;;;12.46;38.83
6198;BME280;3132;42.622;23.328;2023-02-18T11:27:25;93352.25;;;11.99;40.95
6198;BME280;3132;42.622;23.328;2023-02-18T11:29:55;93358.41;;;12.28;40.42
6198;BME280;3132;42.622;23.328;2023-02-18T11:32:27;93363.84;;;12.31;39.99
6198;BME280;3132;42.622;23.328;2023-02-18T11:34:53;93362.75;;;12.42;40.03
6198;BME280;3132;42.622;23.328;2023-02-18T11:37:20;93306.78;;;12.33;40.26
6198;BME280;3132;42.622;23.328;2023-02-18T11:39:52;93355.97;;;12.80;38.78
6198;BME280;3132;42.622;23.328;2023-02-18T11:42:21;93337.31;;;12.86;39.57
6198;BME280;3132;42.622;23.328;2023-02-18T11:44:51;93319.75;;;12.87;38.36
6198;BME280;3132;42.622;23.328;2023-02-18T11:47:27;93334.28;;;13.08;37.96
6198;BME280;3132;42.622;23.328;2023-02-18T11:52:35;93327.53;;;13.31;38.10
6198;BME280;3132;42.622;23.328;2023-02-18T11:55:05;93331.31;;;13.43;37.31
6198;BME280;3132;42.622;23.328;2023-02-18T11:57:34;93324.50;;;13.42;37.90
6198;BME280;3132;42.622;23.328;2023-02-18T12:00:02;93319.88;;;13.34;40.15
6198;BME280;3132;42.622;23.328;2023-02-18T12:05:10;93307.88;;;13.75;36.67
6198;BME280;3132;42.622;23.328;2023-02-18T12:10:24;93297.94;;;13.72;36.42
6198;BME280;3132;42.622;23.328;2023-02-18T12:15:21;93291.22;;;14.08;35.57
6198;BME280;3132;42.622;23.328;2023-02-18T12:26:35;93279.63;;;14.65;36.27
6198;BME280;3132;42.622;23.328;2023-02-18T12:29:16;93294.50;;;14.37;36.81
6198;BME280;3132;42.622;23.328;2023-02-18T12:38:00;93283.38;;;14.78;36.23
6198;BME280;3132;42.622;23.328;2023-02-18T12:43:16;93270.78;;;14.42;37.12
6198;BME280;3132;42.622;23.328;2023-02-18T13:10:11;93251.38;;;14.57;38.61
6198;BME280;3132;42.622;23.328;2023-02-18T13:13:33;93220.72;;;14.34;38.97
6198;BME280;3132;42.622;23.328;2023-02-18T13:18:00;93262.47;;;14.54;39.15
6198;BME280;3132;42.622;23.328;2023-02-18T13:20:39;93267.03;;;14.48;38.75
6198;BME280;3132;42.622;23.328;2023-02-18T13:23:05;93250.69;;;14.52;39.21
6198;BME280;3132;42.622;23.328;2023-02-18T13:25:35;93239.84;;;14.72;39.21
6198;BME280;3132;42.622;23.328;2023-02-18T13:28:25;93237.38;;;14.94;39.26
6198;BME280;3132;42.622;23.328;2023-02-18T13:41:20;93245.00;;;14.44;38.86
6198;BME280;3132;42.622;23.328;2023-02-18T13:43:45;93245.78;;;14.45;37.77
6198;BME280;3132;42.622;23.328;2023-02-18T13:46:23;93250.34;;;14.39;38.20
6198;BME280;3132;42.622;23.328;2023-02-18T13:51:40;93233.28;;;14.37;40.21
6198;BME280;3132;42.622;23.328;2023-02-18T13:56:46;93232.03;;;14.34;39.37
6198;BME280;3132;42.622;23.328;2023-02-18T13:59:22;93225.91;;;14.39;38.37
6198;BME280;3132;42.622;23.328;2023-02-18T14:01:51;93222.09;;;14.31;38.93
6198;BME280;3132;42.622;23.328;2023-02-18T14:09:59;93230.25;;;14.30;39.24
6198;BME280;3132;42.622;23.328;2023-02-18T14:23:55;93232.72;;;14.21;39.45
6198;BME280;3132;42.622;23.328;2023-02-18T14:44:22;93244.19;;;12.65;42.98
6198;BME280;3132;42.622;23.328;2023-02-18T14:49:54;93244.63;;;12.44;43.48
6198;BME280;3132;42.622;23.328;2023-02-18T14:52:36;93238.69;;;12.33;43.87
6198;BME280;3132;42.622;23.328;2023-02-18T14:55:05;93236.91;;;12.29;44.36
6198;BME280;3132;42.622;23.328;2023-02-18T14:57:43;93228.50;;;12.32;44.03
6198;BME280;3132;42.622;23.328;2023-02-18T15:00:16;93228.63;;;12.17;44.49
6198;BME280;3132;42.622;23.328;2023-02-18T15:02:42;93233.03;;;12.21;44.46
6198;BME280;3132;42.622;23.328;2023-02-18T15:05:15;93230.16;;;12.18;44.78
6198;BME280;3132;42.622;23.328;2023-02-18T15:07:40;93233.44;;;12.00;44.74
6198;BME280;3132;42.622;23.328;2023-02-18T15:10:12;93215.19;;;11.85;44.74
6198;BME280;3132;42.622;23.328;2023-02-18T15:12:38;93231.66;;;12.29;44.23
6198;BME280;3132;42.622;23.328;2023-02-18T15:15:04;93219.41;;;11.81;45.16
6198;BME280;3132;42.622;23.328;2023-02-18T15:17:30;93230.84;;;11.95;44.87
6198;BME280;3132;42.622;23.328;2023-02-18T15:19:58;93208.97;;;11.76;45.64
6198;BME280;3132;42.622;23.328;2023-02-18T15:22:26;93224.69;;;11.71;46.40
6198;BME280;3132;42.622;23.328;2023-02-18T15:24:55;93227.38;;;11.56;46.92
6198;BME280;3132;42.622;23.328;2023-02-18T15:27:24;93231.63;;;11.42;47.40
6198;BME280;3132;42.622;23.328;2023-02-18T15:29:55;93207.63;;;11.24;47.37
6198;BME280;3132;42.622;23.328;2023-02-18T15:32:24;93213.66;;;11.20;47.39
6198;BME280;3132;42.622;23.328;2023-02-18T15:34:53;93189.94;;;11.01;48.32
6198;BME280;3132;42.622;23.328;2023-02-18T15:37:20;93205.56;;;11.16;48.17
6198;BME280;3132;42.622;23.328;2023-02-18T15:39:46;93197.25;;;11.04;48.42
6198;BME280;3132;42.622;23.328;2023-02-18T15:42:35;93188.81;;;11.22;47.93
6198;BME280;3132;42.622;23.328;2023-02-18T15:45:08;93199.00;;;11.24;48.02
6198;BME280;3132;42.622;23.328;2023-02-18T15:47:44;93185.78;;;10.95;49.16
6198;BME280;3132;42.622;23.328;2023-02-18T15:52:42;93184.34;;;10.44;51.92
6198;BME280;3132;42.622;23.328;2023-02-18T15:55:35;93175.19;;;10.47;52.56
6198;BME280;3132;42.622;23.328;2023-02-18T15:58:02;93106.63;;;9.71;54.13
6198;BME280;3132;42.622;23.328;2023-02-18T16:00:41;93179.84;;;9.74;56.21
6198;BME280;3132;42.622;23.328;2023-02-18T16:05:38;93174.09;;;9.57;57.03
6198;BME280;3132;42.622;23.328;2023-02-18T16:08:14;93182.97;;;9.71;56.34
6198;BME280;3132;42.622;23.328;2023-02-18T16:10:49;93167.56;;;9.40;57.50